LTAT Airport Information

Runway Information
Runway 03 Length 10990 ft width 148 ft
Elevation 2828 ft Threshold 0 ft Heading 31
Runway 21 Length 10990 ft Width 148 ft
Elevation 2757 ft Threshold 0 ft Heading 211
Airport Frequencies
Type APP Name APP Frequency 122.1 MHZ
Type ATIS Name ATIS Frequency 128.35 MHZ
Type GND Name GND Frequency 121.95 MHZ
Type TWR Name TWR Frequency 122.1 MHZ
Airport Navaids
Type NDB Name Erhac Frequency 421 KHZ
Type VOR Name Malatya Frequency 112000 KHZ
Type TACAN Name Erhac Frequency 113500 KHZ
Airport Weather Information & NOTAM
ADDS - METARS form results

(2102 UTC 18 December 2018)
Data provider http://aviationweather.gov/metar/data/
 
METAR text: LTAT 182050Z 33002KT 7000 FEW020 BKN033 BKN090 06/04 Q1025 NOSIG RMK RWY03 00000KT
Conditions at: LTAT (MALATYA/ERHAC (A, TR) observed 2050 UTC 18 December 2018
Temperature: 6.0°C (43°F)
Dewpoint: 4.0°C (39°F) [RH = 87%]
Pressure (altimeter): 30.27 inches Hg (1025.0 mb)
Winds: from the NNW (330 degrees) at 2 MPH (2 knots; 1.0 m/s)
Visibility: 4 miles ( 7 km)
Ceiling: 3300 feet AGL
Clouds: few clouds at 2000 feet AGL
broken clouds at 3300 feet AGL
broken clouds at 9000 feet AGL
Weather: no significant weather observed at this time

METAR text: LTAT 182020Z 00000KT 4500 BR FEW020 BKN033 BKN090 05/04 Q1025 BECMG TL2100 6000 NSW
Conditions at: LTAT (MALATYA/ERHAC (A, TR) observed 2020 UTC 18 December 2018
Temperature: 5.0°C (41°F)
Dewpoint: 4.0°C (39°F) [RH = 93%]
Pressure (altimeter): 30.27 inches Hg (1025.0 mb)
Winds: calm
Visibility: 2.80 miles (4.51 km)
Ceiling: 3300 feet AGL
Clouds: few clouds at 2000 feet AGL
broken clouds at 3300 feet AGL
broken clouds at 9000 feet AGL
Weather: BR  (mist)

Forecast for: LTAT (MALATYA/ERHAC (A, TR)
Text: TAF LTAT 181640Z 1818/1918 VRB02KT 6000 -RA SCT012 BKN033
Forecast period: 1800 UTC 18 December 2018 to 1800 UTC 19 December 2018
Forecast type: FROM: standard forecast or significant change
Winds: variable direction winds at 2 MPH (2 knots; 1.0 m/s)
Visibility: 4 miles (6 km)
Ceiling: 3300 feet AGL
Clouds: scattered clouds at 1200 feet AGL
broken clouds at 3300 feet AGL
Weather: -RA  (light rain)
Text: TEMPO 1902/1906 3000 RA BR
Forecast period: 0200 to 0600 UTC 19 December 2018
Forecast type: TEMPORARY: The following changes expected for less than half the time period
Visibility: 1.86 miles (2.99 km)
Ceiling: unknown
Clouds: missing
Weather: RA BR  (moderate rain, mist)
Text: TEMPO 1910/1914 3000 RA BR
Forecast period: 1000 to 1400 UTC 19 December 2018
Forecast type: TEMPORARY: The following changes expected for less than half the time period
Visibility: 1.86 miles (2.99 km)
Ceiling: unknown
Clouds: missing
Weather: RA BR  (moderate rain, mist)